KHTH

Hawthorne Industrial Airport

Hawthorne, Nevada, USA
METAR KHTH 170755Z AUTO 00000KT 10SM FEW044 M03/M09 A3020 RMK A01
Observed Flight Rules
Dec-17 @ 07:55 UTC (23 minutes ago) Visual Flight Rules
Wind Visibility Clouds
Calm 10 miles
  • Few at 4,400' AGL
Temperatures Readings
Current -3°C / 27°F
Dewpoint -9°C / 16°F
Humidity 64%
Altimeter 30.2" Hg
Pressure 1023 hPa
METAR KHTH 170755Z AUTO 00000KT 10SM FEW044 M03/M09 A3020 RMK A01
Observed Flight Rules
Dec-17 @ 07:55 UTC
(23 minutes ago)
VFR
Wind Visibility
Calm 10 miles
Clouds
  • Few at 4,400' AGL
Temperature Dewpoint
-3°C / 27°F -9°C / 16°F
Humidity Altimeter Pressure
64% 30.2" Hg 1023 hPa